Aviation Digital Data Service (ADDS)

Output produced by METARs form (0221 UTC 19 February 2019)
found at http://www.aviationweather.gov/metar/data/
 
OMAA 190200Z 19004KT CAVOK 17/11 Q1010 NOSIG
TAF OMAA 182300Z 1900/2006 20005KT 8000 NSC 
     BECMG 1907/1909 31012KT
       
OMAL 190200Z 01003KT CAVOK 15/10 Q1011 NOSIG
TAF OMAL 182300Z 1900/2006 VRB02KT 8000 NSC 
     BECMG 1909/1911 30010KT
       
OMAD 190200Z 30002KT CAVOK 19/11 Q1010 NOSIG
TAF OMAD 182300Z 1900/2006 25004KT 8000 NSC 
     BECMG 1907/1909 32013KT
       
OMDB 190200Z 19006KT CAVOK 18/11 Q1010 NOSIG
TAF OMDB 182301Z 1900/2006 19007KT CAVOK 
     BECMG 1909/1911 26010KT 
     PROB30 
     TEMPO 1915/1922 VRB15G25KT 4000 SHRA SCT050TCU 
     TEMPO 2004/2006 30017G27KT
       
OMFJ 190200Z 30016KT 8000 NSC 20/10 Q1009 RMK A2980
TAF OMFJ 182300Z 1900/2006 29014KT 8000 FEW030 
     PROB40 1900/1906 30018G28KT 4000 BLDU 
     TEMPO 1907/1914 09010KT 
     PROB30 1914/1923 VRB15G25KT 5000 SHRA FEW035TCU
       
OMRK 190200Z 17006KT CAVOK 17/10 Q1011 A2987
TAF OMRK 182301Z 1900/2006 18007KT 8000 NSC 
     BECMG 1909/1911 27010KT 
     PROB30 
     TEMPO 1915/2000 VRB15G25KT 4000 SHRA BLDU FEW050CB 
     BECMG 1916/1918 20005KT 
     BECMG 2004/2006 29015KT
       
OMSJ 190200Z 16007KT CAVOK 17/11 Q1010
TAF OMSJ 182301Z 1900/2006 17007KT 8000 NSC 
     BECMG 1909/1911 26010KT 
     PROB30 
     TEMPO 1915/1922 VRB15G25KT 4000 SHRA BLDU SCT050TCU 
     TEMPO 2004/2006 29017G27KT